Time;durP1;ratioP1;P1;durP2;ratioP2;P2;SDS_P1;SDS_P2;PMS_P1;PMS_P2;Temp;Humidity;BMP_temperature;BMP_pressure;BME280_temperature;BME280_humidity;BME280_pressure;Samples;Min_cycle;Max_cycle;Signal;HPM_P1;HPM_P2
2022/07/14 00:01:19;;;;;;;3.15;2.50;;;;;;;;;;4993216;28;20027;-78
2022/07/14 00:03:45;;;;;;;5.18;2.70;;;;;;;;;;4992909;28;20031;-77
2022/07/14 00:06:10;;;;;;;3.92;2.55;;;;;;;;;;4975243;28;20082;-75
2022/07/14 00:08:35;;;;;;;4.28;2.40;;;;;;;;;;4992657;28;20585;-74
2022/07/14 00:11:02;;;;;;;4.55;2.60;;;;;;;;;;4975446;28;20054;-73
2022/07/14 00:13:27;;;;;;;4.15;2.70;;;;;;;;;;4992702;28;20034;-72
2022/07/14 00:15:53;;;;;;;3.33;2.33;;;;;;;;;;4992903;28;20363;-77
2022/07/14 00:18:18;;;;;;;5.35;2.63;;;;;;;;;;4992710;28;20049;-77
2022/07/14 00:20:45;;;;;;;3.92;2.50;;;;;;;;;;4992668;28;20529;-76
2022/07/14 00:23:10;;;;;;;5.18;2.90;;;;;;;;;;4992384;28;20026;-77
2022/07/14 00:25:35;;;;;;;4.90;2.53;;;;;;;;;;4992516;28;20076;-77
2022/07/14 00:28:01;;;;;;;4.55;2.47;;;;;;;;;;4992536;28;20029;-76
2022/07/14 00:30:26;;;;;;;5.55;2.75;;;;;;;;;;4992606;28;20406;-77
2022/07/14 00:32:52;;;;;;;4.85;2.95;;;;;;;;;;4992563;28;20054;-77
2022/07/14 00:35:18;;;;;;;4.47;2.67;;;;;;;;;;4992632;28;20026;-74
2022/07/14 00:37:43;;;;;;;3.78;2.63;;;;;;;;;;4992411;28;20031;-76
2022/07/14 00:40:09;;;;;;;5.28;2.67;;;;;;;;;;4992291;28;20034;-77
2022/07/14 00:42:37;;;;;;;4.18;2.80;;;;;;;;;;4992307;28;20061;-77
2022/07/14 00:45:05;;;;;;;5.32;2.70;;;;;;;;;;4992117;28;20034;-77
2022/07/14 00:47:30;;;;;;;5.00;2.80;;;;;;;;;;4991973;28;20382;-76
2022/07/14 00:49:56;;;;;;;4.95;3.03;;;;;;;;;;4992089;28;20165;-76
2022/07/14 00:52:26;;;;;;;3.97;3.00;;;;;;;;;;4992223;28;20034;-77
2022/07/14 00:54:52;;;;;;;8.00;2.95;;;;;;;;;;4991945;28;20034;-77
2022/07/14 00:57:18;;;;;;;5.55;2.80;;;;;;;;;;4991669;28;20413;-77
2022/07/14 00:59:44;;;;;;;4.63;3.03;;;;;;;;;;4991916;28;20026;-77
2022/07/14 01:02:10;;;;;;;5.03;3.20;;;;;;;;;;4992066;28;20398;-77
2022/07/14 01:04:36;;;;;;;5.32;3.25;;;;;;;;;;4991792;28;20034;-76
2022/07/14 01:07:01;;;;;;;5.40;3.45;;;;;;;;;;4991795;28;20027;-77
2022/07/14 01:09:27;;;;;;;5.13;3.45;;;;;;;;;;4991691;28;20030;-76
2022/07/14 01:11:52;;;;;;;5.05;3.50;;;;;;;;;;4991736;28;20534;-77
2022/07/14 01:14:17;;;;;;;5.53;3.70;;;;;;;;;;4991845;28;20054;-73
2022/07/14 01:16:43;;;;;;;6.75;3.60;;;;;;;;;;4991322;28;20030;-72
2022/07/14 01:19:09;;;;;;;5.53;3.78;;;;;;;;;;4991695;28;20068;-76
2022/07/14 01:21:34;;;;;;;6.55;3.85;;;;;;;;;;4991336;28;20077;-77
2022/07/14 01:23:59;;;;;;;6.93;4.30;;;;;;;;;;4991521;28;20022;-77
2022/07/14 01:26:25;;;;;;;6.15;4.53;;;;;;;;;;4991195;28;20037;-77
2022/07/14 01:28:50;;;;;;;5.85;4.20;;;;;;;;;;4991836;28;20029;-77
2022/07/14 01:31:18;;;;;;;6.72;4.75;;;;;;;;;;4991315;28;20026;-76
2022/07/14 01:33:44;;;;;;;7.20;4.38;;;;;;;;;;4991156;28;20023;-77
2022/07/14 01:36:09;;;;;;;6.05;4.00;;;;;;;;;;4990994;28;20018;-77
2022/07/14 01:38:35;;;;;;;6.93;3.95;;;;;;;;;;4990951;28;20018;-77
2022/07/14 01:41:00;;;;;;;5.90;4.07;;;;;;;;;;4991101;28;20032;-77
2022/07/14 01:43:26;;;;;;;6.55;4.10;;;;;;;;;;4974110;28;20026;-77
2022/07/14 01:45:51;;;;;;;5.63;4.05;;;;;;;;;;4991199;28;20026;-77
2022/07/14 01:48:16;;;;;;;5.78;4.30;;;;;;;;;;4991177;28;20037;-77
2022/07/14 01:50:42;;;;;;;5.75;3.97;;;;;;;;;;4973617;28;20537;-78
2022/07/14 01:53:07;;;;;;;6.70;3.90;;;;;;;;;;4991133;28;20026;-77
2022/07/14 01:55:34;;;;;;;5.47;3.53;;;;;;;;;;4990723;28;20022;-77
2022/07/14 01:57:59;;;;;;;5.63;3.30;;;;;;;;;;4990760;28;20578;-77
2022/07/14 02:00:24;;;;;;;6.43;3.35;;;;;;;;;;4990987;28;20034;-77
2022/07/14 02:02:50;;;;;;;5.05;3.20;;;;;;;;;;4991328;28;20057;-77
2022/07/14 02:05:16;;;;;;;7.10;3.30;;;;;;;;;;4990685;28;20033;-77
2022/07/14 02:07:41;;;;;;;5.70;3.50;;;;;;;;;;4990488;28;20031;-76
2022/07/14 02:12:51;;;;;;;4.82;3.67;;;;;;;;;;4990746;28;20042;-77
2022/07/14 02:15:17;;;;;;;6.05;3.65;;;;;;;;;;4990629;28;20518;-77
2022/07/14 02:17:42;;;;;;;5.00;3.58;;;;;;;;;;4990591;28;20474;-76
2022/07/14 02:20:09;;;;;;;4.90;3.67;;;;;;;;;;4990764;28;20471;-77
2022/07/14 02:22:34;;;;;;;5.65;4.03;;;;;;;;;;4990767;28;20513;-77
2022/07/14 02:25:00;;;;;;;5.18;3.70;;;;;;;;;;4990670;28;20026;-77
2022/07/14 02:27:25;;;;;;;8.82;4.20;;;;;;;;;;4990338;28;20030;-77
2022/07/14 02:29:50;;;;;;;5.55;4.00;;;;;;;;;;4990742;28;20029;-77
2022/07/14 02:32:16;;;;;;;4.38;3.60;;;;;;;;;;4990503;28;20022;-77
2022/07/14 02:34:41;;;;;;;11.00;4.03;;;;;;;;;;4990893;28;20106;-78
2022/07/14 02:37:07;;;;;;;7.30;3.80;;;;;;;;;;4990196;28;20541;-76
2022/07/14 02:39:32;;;;;;;6.90;4.10;;;;;;;;;;4990721;28;20033;-77
2022/07/14 02:41:57;;;;;;;4.68;3.55;;;;;;;;;;4990275;28;20022;-77
2022/07/14 02:44:23;;;;;;;5.13;3.90;;;;;;;;;;4990471;28;20022;-76
2022/07/14 02:46:48;;;;;;;8.52;3.80;;;;;;;;;;4991760;28;20018;-77
2022/07/14 02:49:14;;;;;;;6.85;4.10;;;;;;;;;;4994431;28;20017;-77
2022/07/14 02:51:39;;;;;;;5.47;4.05;;;;;;;;;;4994160;28;20100;-77
2022/07/14 02:54:05;;;;;;;4.93;3.72;;;;;;;;;;4994427;28;20030;-77
2022/07/14 02:56:30;;;;;;;6.28;3.85;;;;;;;;;;4994309;28;20019;-76
2022/07/14 02:58:56;;;;;;;5.53;3.95;;;;;;;;;;4993931;28;20046;-77
2022/07/14 03:01:21;;;;;;;7.68;4.72;;;;;;;;;;4993967;28;20019;-77
2022/07/14 03:03:47;;;;;;;6.45;4.07;;;;;;;;;;4994102;28;20049;-76
2022/07/14 03:06:15;;;;;;;8.30;4.60;;;;;;;;;;4993925;28;20053;-77
2022/07/14 03:08:41;;;;;;;7.10;5.05;;;;;;;;;;4993759;28;20026;-77
2022/07/14 03:11:07;;;;;;;8.45;4.45;;;;;;;;;;4993907;28;20023;-77
2022/07/14 03:13:32;;;;;;;6.80;4.60;;;;;;;;;;4994295;28;20030;-77
2022/07/14 03:15:59;;;;;;;7.20;5.20;;;;;;;;;;4993969;28;20033;-77
2022/07/14 03:18:25;;;;;;;9.52;5.13;;;;;;;;;;4993603;28;20026;-77
2022/07/14 03:20:52;;;;;;;6.82;5.28;;;;;;;;;;4993582;28;20076;-77
2022/07/14 03:23:17;;;;;;;9.35;5.25;;;;;;;;;;4993470;28;20030;-77
2022/07/14 03:25:43;;;;;;;7.10;5.30;;;;;;;;;;4993786;28;20037;-77
2022/07/14 03:28:09;;;;;;;7.85;5.85;;;;;;;;;;4993420;28;20057;-77
2022/07/14 03:30:34;;;;;;;7.90;6.20;;;;;;;;;;4993721;28;20029;-77
2022/07/14 03:32:59;;;;;;;10.05;6.40;;;;;;;;;;4993439;28;20037;-77
2022/07/14 03:35:26;;;;;;;11.50;6.60;;;;;;;;;;4993546;28;20030;-77
2022/07/14 03:37:51;;;;;;;8.27;6.07;;;;;;;;;;4993023;28;20533;-77
2022/07/14 03:40:17;;;;;;;7.93;6.57;;;;;;;;;;4976119;28;20034;-77
2022/07/14 03:42:44;;;;;;;10.45;6.90;;;;;;;;;;4993117;28;20034;-77
2022/07/14 03:45:09;;;;;;;8.65;6.20;;;;;;;;;;4993495;28;20034;-76
2022/07/14 03:47:34;;;;;;;8.32;6.82;;;;;;;;;;4993087;28;20019;-76
2022/07/14 03:50:00;;;;;;;9.85;6.65;;;;;;;;;;4993485;28;20108;-77
2022/07/14 03:52:26;;;;;;;9.60;6.60;;;;;;;;;;4975362;28;20034;-77
2022/07/14 03:54:51;;;;;;;9.43;6.43;;;;;;;;;;4975730;28;20034;-77
2022/07/14 03:57:16;;;;;;;10.20;6.75;;;;;;;;;;4992091;28;20034;-76
2022/07/14 03:59:42;;;;;;;9.27;6.70;;;;;;;;;;4993175;28;20061;-77
2022/07/14 04:02:09;;;;;;;9.43;6.78;;;;;;;;;;4992933;28;20038;-76
2022/07/14 04:04:34;;;;;;;10.23;6.60;;;;;;;;;;4993453;28;20148;-77
2022/07/14 04:07:00;;;;;;;7.53;6.25;;;;;;;;;;4992887;28;20486;-77
2022/07/14 04:09:26;;;;;;;10.32;6.13;;;;;;;;;;4975484;28;20030;-78
2022/07/14 04:11:51;;;;;;;7.82;5.80;;;;;;;;;;4992571;28;20040;-77
2022/07/14 04:14:17;;;;;;;8.35;6.70;;;;;;;;;;4992854;28;20085;-77
2022/07/14 04:16:42;;;;;;;9.48;6.43;;;;;;;;;;4992672;28;20035;-77
2022/07/14 04:19:08;;;;;;;11.57;7.03;;;;;;;;;;4992936;28;20058;-77
2022/07/14 04:21:36;;;;;;;8.88;6.05;;;;;;;;;;4992579;28;20089;-77
2022/07/14 04:24:03;;;;;;;8.90;5.97;;;;;;;;;;4992763;28;20030;-77
2022/07/14 04:26:29;;;;;;;10.05;6.65;;;;;;;;;;4992828;28;20038;-77
2022/07/14 04:28:55;;;;;;;8.38;7.00;;;;;;;;;;4992511;28;20478;-77
2022/07/14 04:31:20;;;;;;;10.38;7.00;;;;;;;;;;4992794;28;20057;-76
2022/07/14 04:33:46;;;;;;;9.85;7.18;;;;;;;;;;4992258;28;20030;-78
2022/07/14 04:36:11;;;;;;;8.63;6.90;;;;;;;;;;4992574;28;20485;-77
2022/07/14 04:38:37;;;;;;;8.68;6.63;;;;;;;;;;4992038;28;20109;-78
2022/07/14 04:41:03;;;;;;;11.23;7.13;;;;;;;;;;4992596;28;20160;-76
2022/07/14 04:43:28;;;;;;;9.85;7.00;;;;;;;;;;4992128;28;20092;-77
2022/07/14 04:45:54;;;;;;;8.30;6.65;;;;;;;;;;4992359;28;20106;-77
2022/07/14 04:48:19;;;;;;;9.32;6.82;;;;;;;;;;4992106;28;20022;-77
2022/07/14 04:53:29;;;;;;;9.48;7.18;;;;;;;;;;4991789;28;20493;-77
2022/07/14 04:55:54;;;;;;;10.45;7.35;;;;;;;;;;4992210;28;20026;-77
2022/07/14 04:58:24;;;;;;;10.68;6.93;;;;;;;;;;4974148;28;20150;-77
2022/07/14 05:00:49;;;;;;;9.75;6.88;;;;;;;;;;4992216;28;20033;-76
2022/07/14 05:03:14;;;;;;;13.57;7.60;;;;;;;;;;4991875;28;20034;-77
2022/07/14 05:05:40;;;;;;;11.60;7.15;;;;;;;;;;4992052;28;20109;-78
2022/07/14 05:08:05;;;;;;;9.45;7.35;;;;;;;;;;4991379;28;20026;-78
2022/07/14 05:10:31;;;;;;;15.40;7.50;;;;;;;;;;4990868;28;20027;-76
2022/07/14 05:12:56;;;;;;;13.27;7.63;;;;;;;;;;4991699;28;20026;-77
2022/07/14 05:15:22;;;;;;;10.45;6.55;;;;;;;;;;4991743;28;20057;-77
2022/07/14 05:17:47;;;;;;;9.38;7.30;;;;;;;;;;4991530;28;20081;-77
2022/07/14 05:20:13;;;;;;;9.27;7.07;;;;;;;;;;4992032;28;20049;-76
2022/07/14 05:22:41;;;;;;;10.50;7.00;;;;;;;;;;4991489;28;20030;-77
2022/07/14 05:25:07;;;;;;;9.32;6.90;;;;;;;;;;4974155;28;20027;-77
2022/07/14 05:27:33;;;;;;;10.43;6.63;;;;;;;;;;4991573;28;20036;-75
2022/07/14 05:29:58;;;;;;;11.20;6.78;;;;;;;;;;4991928;28;20026;-77
2022/07/14 05:32:24;;;;;;;8.18;6.47;;;;;;;;;;4991230;28;20057;-78
2022/07/14 05:34:49;;;;;;;9.27;6.32;;;;;;;;;;4991403;28;20118;-80
2022/07/14 05:37:15;;;;;;;8.70;6.15;;;;;;;;;;4991378;28;20591;-77
2022/07/14 05:39:40;;;;;;;7.28;6.40;;;;;;;;;;4991048;28;20022;-77
2022/07/14 05:42:06;;;;;;;9.52;6.43;;;;;;;;;;4991167;28;20026;-77
2022/07/14 05:44:31;;;;;;;8.00;6.38;;;;;;;;;;4990916;28;20027;-77
2022/07/14 05:46:57;;;;;;;8.00;6.22;;;;;;;;;;4991121;28;20121;-76
2022/07/14 05:49:22;;;;;;;8.00;6.40;;;;;;;;;;4990776;28;20030;-77
2022/07/14 05:51:47;;;;;;;8.98;5.88;;;;;;;;;;4991090;28;20194;-77
2022/07/14 05:54:13;;;;;;;9.15;5.82;;;;;;;;;;4990915;28;20026;-77
2022/07/14 05:56:38;;;;;;;8.90;5.43;;;;;;;;;;4991185;28;20032;-76
2022/07/14 05:59:04;;;;;;;9.10;5.78;;;;;;;;;;4990666;28;20137;-77
2022/07/14 06:01:29;;;;;;;7.20;5.57;;;;;;;;;;4990978;28;20486;-77
2022/07/14 06:03:57;;;;;;;6.40;5.18;;;;;;;;;;4990941;28;20027;-77
2022/07/14 06:06:23;;;;;;;7.78;5.07;;;;;;;;;;4990939;28;20031;-77
2022/07/14 06:08:49;;;;;;;9.32;4.93;;;;;;;;;;4990580;28;20080;-76
2022/07/14 06:11:15;;;;;;;6.63;4.88;;;;;;;;;;4991217;28;20058;-78
2022/07/14 06:13:41;;;;;;;8.25;5.40;;;;;;;;;;4990710;28;20069;-78
2022/07/14 06:16:07;;;;;;;5.30;4.80;;;;;;;;;;4990794;28;20022;-77
2022/07/14 06:18:33;;;;;;;9.60;4.60;;;;;;;;;;4990525;28;20026;-78
2022/07/14 06:20:58;;;;;;;4.88;4.38;;;;;;;;;;4990881;28;20030;-77
2022/07/14 06:23:24;;;;;;;8.93;5.07;;;;;;;;;;4990430;28;20018;-78
2022/07/14 06:25:49;;;;;;;6.43;4.68;;;;;;;;;;4990745;28;20027;-78
2022/07/14 06:28:15;;;;;;;5.88;4.32;;;;;;;;;;4973053;28;20527;-77
2022/07/14 06:30:42;;;;;;;5.53;4.43;;;;;;;;;;4990853;28;20022;-77
2022/07/14 06:33:08;;;;;;;7.78;4.45;;;;;;;;;;4990554;28;20034;-77
2022/07/14 06:35:33;;;;;;;7.40;4.30;;;;;;;;;;4990960;28;20034;-78
2022/07/14 06:37:59;;;;;;;6.28;3.97;;;;;;;;;;4990539;28;20030;-77
2022/07/14 06:40:25;;;;;;;8.10;4.07;;;;;;;;;;4990463;28;20403;-78
2022/07/14 06:42:51;;;;;;;5.82;4.10;;;;;;;;;;4990633;28;20509;-78
2022/07/14 06:45:16;;;;;;;8.02;3.92;;;;;;;;;;4990814;28;20414;-76
2022/07/14 06:47:42;;;;;;;7.60;4.05;;;;;;;;;;4990788;28;20509;-78
2022/07/14 06:50:08;;;;;;;5.78;3.90;;;;;;;;;;4990252;28;20133;-78
2022/07/14 06:52:35;;;;;;;5.57;4.00;;;;;;;;;;4990294;28;20026;-78
2022/07/14 06:55:03;;;;;;;6.50;3.90;;;;;;;;;;4990232;28;20026;-78
2022/07/14 06:57:28;;;;;;;6.13;3.88;;;;;;;;;;4990194;28;20094;-78
2022/07/14 06:59:54;;;;;;;5.28;3.70;;;;;;;;;;4990136;28;20034;-78
2022/07/14 07:02:20;;;;;;;5.75;3.95;;;;;;;;;;4990859;28;20029;-77
2022/07/14 07:06:43;;;;;;;8.00;3.75;;;;;;;;;;4990224;28;20513;-78
2022/07/14 07:07:32;;;;;;;5.65;3.90;;;;;;;;;;4990190;28;20037;-77
2022/07/14 07:09:58;;;;;;;5.35;3.58;;;;;;;;;;4989969;28;20023;-78
2022/07/14 07:12:23;;;;;;;5.30;3.60;;;;;;;;;;4990337;28;20058;-78
2022/07/14 07:14:49;;;;;;;10.00;3.67;;;;;;;;;;4990311;28;20113;-78
2022/07/14 07:17:14;;;;;;;4.40;3.35;;;;;;;;;;4990362;28;20043;-79
2022/07/14 07:19:39;;;;;;;5.68;3.20;;;;;;;;;;4990061;28;20092;-79
2022/07/14 07:22:05;;;;;;;4.82;3.33;;;;;;;;;;4990456;28;20034;-79
2022/07/14 07:24:30;;;;;;;5.00;3.50;;;;;;;;;;4990102;28;20512;-79
2022/07/14 07:26:56;;;;;;;5.85;3.50;;;;;;;;;;4990315;28;20026;-77
2022/07/14 07:29:21;;;;;;;5.18;3.42;;;;;;;;;;4989990;28;20034;-75
2022/07/14 07:31:47;;;;;;;5.05;3.40;;;;;;;;;;4989966;28;20030;-76
2022/07/14 07:34:12;;;;;;;4.72;3.47;;;;;;;;;;4993164;28;20053;-78
2022/07/14 07:36:39;;;;;;;4.72;3.17;;;;;;;;;;4993696;28;20068;-75
2022/07/14 07:39:04;;;;;;;4.03;3.40;;;;;;;;;;4993251;28;20057;-76
2022/07/14 07:41:29;;;;;;;4.90;3.08;;;;;;;;;;4975981;28;20057;-74
2022/07/14 07:43:57;;;;;;;7.90;3.47;;;;;;;;;;4993370;28;20076;-74
2022/07/14 07:46:22;;;;;;;4.90;3.10;;;;;;;;;;4993422;28;20022;-73
2022/07/14 07:48:48;;;;;;;5.43;2.90;;;;;;;;;;4993186;28;20026;-74
2022/07/14 07:51:13;;;;;;;4.80;3.03;;;;;;;;;;4993389;28;20122;-77
2022/07/14 07:53:40;;;;;;;6.32;3.10;;;;;;;;;;4992935;28;20529;-77
2022/07/14 07:56:06;;;;;;;5.03;3.22;;;;;;;;;;4993297;28;20053;-77
2022/07/14 07:58:32;;;;;;;3.90;2.83;;;;;;;;;;4993313;28;20503;-76
2022/07/14 08:00:58;;;;;;;11.70;3.10;;;;;;;;;;4992778;28;20611;-78
2022/07/14 08:03:24;;;;;;;5.35;3.08;;;;;;;;;;4993218;28;20046;-76
2022/07/14 08:05:49;;;;;;;5.05;3.13;;;;;;;;;;4992775;28;20069;-77
2022/07/14 08:08:15;;;;;;;5.32;3.10;;;;;;;;;;4993050;28;20141;-73
2022/07/14 08:10:40;;;;;;;5.13;3.13;;;;;;;;;;4992552;28;20041;-77
2022/07/14 08:13:07;;;;;;;3.58;2.75;;;;;;;;;;4993022;28;20037;-72
2022/07/14 08:15:32;;;;;;;4.28;2.80;;;;;;;;;;4992918;28;20053;-74
2022/07/14 08:17:58;;;;;;;4.05;2.80;;;;;;;;;;4992982;28;20059;-73
2022/07/14 08:20:23;;;;;;;4.93;3.00;;;;;;;;;;4992735;28;20453;-74
2022/07/14 08:22:48;;;;;;;5.85;2.85;;;;;;;;;;4992711;28;20467;-77
2022/07/14 08:25:14;;;;;;;4.28;2.90;;;;;;;;;;4992378;28;20479;-76
2022/07/14 08:27:39;;;;;;;5.40;2.60;;;;;;;;;;4992675;28;20058;-75
2022/07/14 08:30:06;;;;;;;4.07;2.78;;;;;;;;;;4992326;28;20023;-77
2022/07/14 08:32:46;;;;;;;3.95;2.63;;;;;;;;;;4975219;28;20108;-77
2022/07/14 08:35:12;;;;;;;;;;;;;;;;;;4992866;28;20569;-75
2022/07/14 08:37:38;;;;;;;7.55;2.67;;;;;;;;;;4992412;28;19920;-75
2022/07/14 08:40:09;;;;;;;4.72;2.90;;;;;;;;;;4992134;28;20027;-73
2022/07/14 08:42:36;;;;;;;4.85;2.90;;;;;;;;;;4992488;28;20033;-74
2022/07/14 08:45:08;;;;;;;4.10;2.90;;;;;;;;;;4991910;28;20113;-75
2022/07/14 08:47:34;;;;;;;6.97;2.60;;;;;;;;;;4992395;28;20030;-75
2022/07/14 08:50:00;;;;;;;3.97;2.70;;;;;;;;;;4991782;28;20030;-74
2022/07/14 08:52:25;;;;;;;5.65;3.00;;;;;;;;;;4992093;28;20099;-74
2022/07/14 08:54:51;;;;;;;6.45;2.80;;;;;;;;;;4992004;28;20046;-73
2022/07/14 08:57:16;;;;;;;6.85;2.92;;;;;;;;;;4992022;28;20037;-73
2022/07/14 08:59:42;;;;;;;3.83;2.90;;;;;;;;;;4991619;28;20049;-74
2022/07/14 09:02:08;;;;;;;3.83;2.90;;;;;;;;;;4992181;28;20394;-73
2022/07/14 09:04:33;;;;;;;5.55;2.80;;;;;;;;;;4991879;28;20081;-73
2022/07/14 09:06:59;;;;;;;4.25;2.50;;;;;;;;;;4974456;28;20022;-73
2022/07/14 09:09:34;;;;;;;4.05;2.80;;;;;;;;;;4991851;28;20502;-75
2022/07/14 09:12:07;;;;;;;5.43;2.85;;;;;;;;;;4958871;28;20026;-75
2022/07/14 09:17:22;;;;;;;4.13;2.70;;;;;;;;;;4991771;28;20679;-75
2022/07/14 09:20:11;;;;;;;4.07;2.75;;;;;;;;;;4991330;28;20434;-74
2022/07/14 09:22:39;;;;;;;3.60;2.58;;;;;;;;;;4981585;28;20087;-79
2022/07/14 09:25:08;;;;;;;4.97;2.70;;;;;;;;;;4991433;28;20030;-73
2022/07/14 09:27:34;;;;;;;5.68;2.58;;;;;;;;;;4991574;28;20030;-80
2022/07/14 09:30:00;;;;;;;4.43;3.08;;;;;;;;;;4991236;28;20693;-74
2022/07/14 09:32:41;;;;;;;3.20;2.67;;;;;;;;;;4991422;28;20114;-75
2022/07/14 09:35:07;;;;;;;3.55;2.75;;;;;;;;;;4991150;28;20062;-73
2022/07/14 09:37:32;;;;;;;4.05;2.90;;;;;;;;;;4991216;28;20112;-72
2022/07/14 09:39:59;;;;;;;3.45;2.80;;;;;;;;;;4991053;28;20568;-74
2022/07/14 09:42:51;;;;;;;3.97;2.75;;;;;;;;;;4991271;28;20108;-75
2022/07/14 09:45:22;;;;;;;4.40;2.90;;;;;;;;;;4991202;28;20030;-74
2022/07/14 09:47:56;;;;;;;5.13;2.85;;;;;;;;;;4991384;28;20390;-80
2022/07/14 09:50:48;;;;;;;4.68;2.72;;;;;;;;;;4973413;28;20018;-76
2022/07/14 09:53:20;;;;;;;3.08;2.58;;;;;;;;;;4990810;28;20022;-79
2022/07/14 09:55:53;;;;;;;4.60;2.70;;;;;;;;;;4990518;28;20037;-80
2022/07/14 09:58:29;;;;;;;5.60;2.80;;;;;;;;;;4973391;28;20039;-80
2022/07/14 10:01:08;;;;;;;4.25;2.65;;;;;;;;;;4990702;28;20022;-79
2022/07/14 10:03:35;;;;;;;3.88;3.08;;;;;;;;;;4991170;28;20450;-80
2022/07/14 10:06:03;;;;;;;7.82;2.97;;;;;;;;;;4990815;28;20032;-80
2022/07/14 10:08:34;;;;;;;3.72;2.90;;;;;;;;;;4990994;28;20042;-81
2022/07/14 10:11:01;;;;;;;3.35;2.50;;;;;;;;;;4990460;28;20054;-80
2022/07/14 10:13:27;;;;;;;4.43;2.92;;;;;;;;;;4990639;28;20069;-79
2022/07/14 10:15:54;;;;;;;4.85;3.00;;;;;;;;;;4990726;28;20115;-79
2022/07/14 10:18:21;;;;;;;4.18;2.92;;;;;;;;;;4990880;28;20029;-79
2022/07/14 10:20:50;;;;;;;6.88;2.75;;;;;;;;;;4990450;28;20121;-80
2022/07/14 10:23:17;;;;;;;5.47;2.97;;;;;;;;;;4990821;28;20391;-77
2022/07/14 10:25:46;;;;;;;4.15;2.78;;;;;;;;;;4990439;28;20026;-79
2022/07/14 10:28:13;;;;;;;5.55;2.90;;;;;;;;;;4990558;28;20037;-77
2022/07/14 10:31:03;;;;;;;5.38;2.90;;;;;;;;;;4990165;28;20034;-78
2022/07/14 10:33:28;;;;;;;5.28;2.90;;;;;;;;;;4989768;28;20042;-78
2022/07/14 10:36:11;;;;;;;6.97;2.97;;;;;;;;;;4990434;28;20031;-79
2022/07/14 10:38:50;;;;;;;4.10;2.97;;;;;;;;;;4990496;28;20030;-80
2022/07/14 10:41:41;;;;;;;4.03;2.83;;;;;;;;;;4990421;28;20130;-80
2022/07/14 10:44:15;;;;;;;5.38;3.03;;;;;;;;;;4990021;28;20026;-80
2022/07/14 10:46:43;;;;;;;4.47;2.80;;;;;;;;;;4990147;28;20018;-77
2022/07/14 10:49:10;;;;;;;4.75;2.90;;;;;;;;;;4990387;28;20026;-78
2022/07/14 10:52:02;;;;;;;4.90;2.92;;;;;;;;;;4990105;28;20026;-78
2022/07/14 10:54:30;;;;;;;4.65;3.00;;;;;;;;;;4986633;28;20043;-74
2022/07/14 10:57:17;;;;;;;7.47;2.90;;;;;;;;;;4990349;28;20069;-76
2022/07/14 10:59:47;;;;;;;4.90;2.70;;;;;;;;;;4972994;28;20487;-75
2022/07/14 11:02:12;;;;;;;3.63;2.95;;;;;;;;;;4972423;28;20034;-75
2022/07/14 11:05:00;;;;;;;5.25;2.90;;;;;;;;;;4990438;28;20031;-78
2022/07/14 11:07:36;;;;;;;4.32;2.88;;;;;;;;;;4973321;28;20089;-77
2022/07/14 11:10:04;;;;;;;6.72;2.92;;;;;;;;;;4994141;28;20031;-81
2022/07/14 11:12:30;;;;;;;5.07;2.90;;;;;;;;;;4993837;28;20595;-82
2022/07/14 11:14:55;;;;;;;8.10;3.10;;;;;;;;;;4994219;28;20050;-79
2022/07/14 11:17:34;;;;;;;3.42;2.97;;;;;;;;;;4994141;28;20477;-80
2022/07/14 11:20:00;;;;;;;3.83;2.80;;;;;;;;;;4993986;28;20023;-79
2022/07/14 11:22:25;;;;;;;6.40;3.00;;;;;;;;;;4993640;28;20032;-80
2022/07/14 11:24:56;;;;;;;3.70;2.90;;;;;;;;;;4993724;28;20101;-78
2022/07/14 11:27:35;;;;;;;5.43;2.78;;;;;;;;;;4993518;28;20198;-79
2022/07/14 11:30:33;;;;;;;3.63;3.00;;;;;;;;;;4993835;28;20026;-79
2022/07/14 11:33:07;;;;;;;3.85;3.20;;;;;;;;;;4949893;28;20034;-78
2022/07/14 11:38:34;;;;;;;7.63;3.10;;;;;;;;;;4993666;28;20069;-78
2022/07/14 11:41:02;;;;;;;5.25;2.80;;;;;;;;;;4993255;28;20030;-78
2022/07/14 11:43:30;;;;;;;3.80;3.00;;;;;;;;;;4993143;28;20088;-79
2022/07/14 11:45:58;;;;;;;3.60;2.83;;;;;;;;;;4975895;28;20490;-79
2022/07/14 11:48:28;;;;;;;4.57;2.80;;;;;;;;;;4993776;28;20029;-77
2022/07/14 11:51:08;;;;;;;3.40;2.90;;;;;;;;;;4993343;28;20363;-79
2022/07/14 11:53:35;;;;;;;3.83;2.70;;;;;;;;;;4993040;28;20093;-78
2022/07/14 11:56:02;;;;;;;4.70;2.90;;;;;;;;;;4993355;28;20062;-79
2022/07/14 11:58:31;;;;;;;5.70;3.08;;;;;;;;;;4992671;28;20058;-78
2022/07/14 12:00:59;;;;;;;4.03;3.00;;;;;;;;;;4993011;28;20038;-79
2022/07/14 12:03:25;;;;;;;6.80;3.03;;;;;;;;;;4992985;28;20022;-79
2022/07/14 12:05:55;;;;;;;4.70;2.80;;;;;;;;;;4993052;28;20046;-79
2022/07/14 12:08:28;;;;;;;;;;;;;;;;;;4993228;28;20041;-78
2022/07/14 12:10:59;;;;;;;3.63;2.75;;;;;;;;;;4992923;28;19910;-78
2022/07/14 12:13:25;;;;;;;3.67;3.00;;;;;;;;;;4975517;28;20034;-78
2022/07/14 12:15:50;;;;;;;4.82;2.80;;;;;;;;;;4993005;28;20045;-78
2022/07/14 12:18:15;;;;;;;4.38;2.97;;;;;;;;;;4992363;28;20030;-78
2022/07/14 12:20:45;;;;;;;3.65;2.70;;;;;;;;;;4993140;28;20061;-78
2022/07/14 12:23:12;;;;;;;5.68;2.78;;;;;;;;;;4992648;28;20046;-76
2022/07/14 12:25:40;;;;;;;3.70;2.83;;;;;;;;;;4993084;28;20034;-77
2022/07/14 12:28:09;;;;;;;4.18;2.83;;;;;;;;;;4992694;28;20038;-76
2022/07/14 12:30:50;;;;;;;6.32;3.00;;;;;;;;;;4992532;28;20105;-75
2022/07/14 12:33:20;;;;;;;4.80;3.00;;;;;;;;;;4992309;28;20037;-77
2022/07/14 12:35:46;;;;;;;;;;;;;;;;;;4993136;28;20507;-78
2022/07/14 12:38:13;;;;;;;5.25;2.90;;;;;;;;;;4992504;28;19909;-78
2022/07/14 12:40:39;;;;;;;3.63;2.85;;;;;;;;;;4992484;28;20054;-78
2022/07/14 12:43:08;;;;;;;6.57;3.00;;;;;;;;;;4992460;28;20065;-79
2022/07/14 12:46:02;;;;;;;4.35;2.97;;;;;;;;;;4975490;28;20037;-79
2022/07/14 12:48:28;;;;;;;4.90;2.97;;;;;;;;;;4992496;28;20040;-78
2022/07/14 12:50:54;;;;;;;5.65;2.92;;;;;;;;;;4992264;28;20036;-78
2022/07/14 12:53:20;;;;;;;3.20;2.90;;;;;;;;;;4992013;28;20023;-79
2022/07/14 12:55:45;;;;;;;6.60;2.80;;;;;;;;;;4992101;28;20383;-77
2022/07/14 12:58:13;;;;;;;4.55;3.22;;;;;;;;;;4991850;28;20053;-78
2022/07/14 13:00:41;;;;;;;4.93;2.75;;;;;;;;;;4992342;28;20027;-78
2022/07/14 13:03:11;;;;;;;3.58;2.70;;;;;;;;;;4992150;28;20475;-78
2022/07/14 13:05:55;;;;;;;5.15;2.88;;;;;;;;;;4992194;28;20030;-78
2022/07/14 13:08:33;;;;;;;3.85;2.80;;;;;;;;;;4991290;28;20032;-76
2022/07/14 13:11:01;;;;;;;5.10;2.80;;;;;;;;;;4991499;28;20034;-78
2022/07/14 13:13:38;;;;;;;5.43;2.72;;;;;;;;;;4991605;28;20022;-78
2022/07/14 13:16:24;;;;;;;11.27;2.70;;;;;;;;;;4974324;28;20190;-78
2022/07/14 13:19:09;;;;;;;3.47;2.63;;;;;;;;;;4991469;28;20034;-77
2022/07/14 13:21:48;;;;;;;4.15;2.63;;;;;;;;;;4991773;28;20026;-77
2022/07/14 13:24:25;;;;;;;3.97;2.70;;;;;;;;;;4991335;28;20030;-74
2022/07/14 13:27:08;;;;;;;2.92;2.60;;;;;;;;;;4991509;28;20153;-75
2022/07/14 13:29:38;;;;;;;4.72;2.60;;;;;;;;;;4990945;28;20594;-76
2022/07/14 13:32:06;;;;;;;6.40;2.85;;;;;;;;;;4991307;28;20022;-74
2022/07/14 13:34:31;;;;;;;4.15;2.90;;;;;;;;;;4991242;28;20023;-73
2022/07/14 13:36:58;;;;;;;5.80;2.60;;;;;;;;;;4991341;28;20076;-72
2022/07/14 13:39:25;;;;;;;3.78;2.70;;;;;;;;;;4991289;28;20152;-73
2022/07/14 13:41:51;;;;;;;5.22;2.95;;;;;;;;;;4991083;28;20018;-73
2022/07/14 13:44:17;;;;;;;4.13;2.90;;;;;;;;;;4990920;28;20031;-72
2022/07/14 13:46:44;;;;;;;4.40;2.50;;;;;;;;;;4990952;28;20038;-72
2022/07/14 13:49:09;;;;;;;3.33;2.50;;;;;;;;;;4991050;28;20030;-72
2022/07/14 13:54:18;;;;;;;3.22;2.38;;;;;;;;;;4991053;28;20052;-72
2022/07/14 13:56:44;;;;;;;2.90;2.38;;;;;;;;;;4991198;28;20022;-73
2022/07/14 13:59:10;;;;;;;3.47;2.60;;;;;;;;;;4990733;28;20414;-72
2022/07/14 14:01:36;;;;;;;4.93;2.70;;;;;;;;;;4990767;28;20623;-73
2022/07/14 14:04:03;;;;;;;5.65;2.60;;;;;;;;;;4990693;28;20030;-72
2022/07/14 14:06:28;;;;;;;4.85;2.45;;;;;;;;;;4990922;28;20053;-72
2022/07/14 14:08:54;;;;;;;4.80;2.58;;;;;;;;;;4990542;28;20058;-72
2022/07/14 14:11:19;;;;;;;3.97;2.60;;;;;;;;;;4990835;28;20407;-72
2022/07/14 14:13:45;;;;;;;5.85;2.70;;;;;;;;;;4990726;28;20034;-72
2022/07/14 14:16:11;;;;;;;4.30;2.63;;;;;;;;;;4991007;28;20053;-73
2022/07/14 14:18:37;;;;;;;4.53;2.50;;;;;;;;;;4990797;28;20057;-77
2022/07/14 14:21:06;;;;;;;4.90;2.60;;;;;;;;;;4990965;28;20034;-77
2022/07/14 14:23:32;;;;;;;3.28;2.38;;;;;;;;;;4989934;28;20596;-77
2022/07/14 14:25:59;;;;;;;2.95;2.40;;;;;;;;;;4990847;28;20543;-75
2022/07/14 14:28:25;;;;;;;3.28;2.42;;;;;;;;;;4990635;28;20074;-80
2022/07/14 14:30:51;;;;;;;3.83;2.33;;;;;;;;;;4990830;28;20057;-81
2022/07/14 14:33:17;;;;;;;3.67;2.25;;;;;;;;;;4990322;28;20066;-81
2022/07/14 14:35:43;;;;;;;4.32;2.33;;;;;;;;;;4990624;28;20030;-76
2022/07/14 14:38:08;;;;;;;4.68;2.40;;;;;;;;;;4972894;28;20041;-76
2022/07/14 14:40:35;;;;;;;2.97;2.17;;;;;;;;;;4990306;28;20036;-77
2022/07/14 14:43:00;;;;;;;4.57;2.30;;;;;;;;;;4993720;28;20474;-78
2022/07/14 14:45:26;;;;;;;2.88;2.00;;;;;;;;;;4994357;28;20037;-78
2022/07/14 14:47:52;;;;;;;6.13;2.15;;;;;;;;;;4994667;28;20054;-78
2022/07/14 14:50:17;;;;;;;6.38;2.20;;;;;;;;;;4994297;28;20081;-78
2022/07/14 14:52:45;;;;;;;4.00;1.95;;;;;;;;;;4976536;28;20034;-77
2022/07/14 14:55:12;;;;;;;3.95;1.90;;;;;;;;;;4994244;28;20030;-77
2022/07/14 14:57:37;;;;;;;2.65;2.00;;;;;;;;;;4994220;28;20046;-75
2022/07/14 15:00:04;;;;;;;4.15;2.10;;;;;;;;;;4994088;28;20039;-77